Yuncos, Spain
Current Conditions -  °F | °C
As of 6:00 PM on Saturday 25 Oct 2014 (Local Time) from LEGT Reporting Station
Clear Clear  
Wind Chill: 81°   Ceiling: Unl
Heat Index: 81°   Visibility: 6mi
Dew Point: 37°   Wind: 3mph
Humidity: 21%   Direction: 100°E
Pressure: 30.12"   Gusts: NA
Location:  40.09°N, 3.87°W
Report Text: LEGT 251600Z 10003KT CAVOK 27/03 Q1020
Loading
Personal Weather Stations






























Interactive Weather Map
Tropical Storm Tracking
New forecast layout! Learn more

10-Day Weather Forecast

Advertisements
Track Severe Weather on mobile